createdAt,value
2023-03-31T00:04:25.944Z,4.6
2023-03-31T00:10:24.195Z,4
2023-03-31T00:16:19.055Z,6
2023-03-31T00:22:12.633Z,4.6
2023-03-31T00:28:10.133Z,4.5
2023-03-31T00:34:04.985Z,5.8
2023-03-31T00:39:58.143Z,6.3
2023-03-31T00:45:53.020Z,9
2023-03-31T00:51:52.187Z,9.2
2023-03-31T00:57:44.407Z,7.4
2023-03-31T01:03:40.919Z,11
2023-03-31T01:09:38.120Z,12.8
2023-03-31T01:15:35.060Z,11.6
2023-03-31T01:21:30.176Z,9.3
2023-03-31T01:27:24.095Z,13.5
2023-03-31T01:33:31.381Z,11.2
2023-03-31T01:39:23.759Z,16
2023-03-31T01:45:17.630Z,14.6
2023-03-31T01:51:10.473Z,12.8
2023-03-31T01:57:02.424Z,11.3
2023-03-31T02:03:08.218Z,10.2
2023-03-31T02:09:02.323Z,9.7
2023-03-31T02:15:01.382Z,7.6
2023-03-31T02:20:53.022Z,9.2
2023-03-31T02:26:51.400Z,7.9
2023-03-31T02:32:52.710Z,7.5
2023-03-31T02:38:54.792Z,8.4
2023-03-31T02:44:46.204Z,8.9
2023-03-31T02:50:44.828Z,11.5
2023-03-31T02:56:37.789Z,7.3
2023-03-31T03:02:30.778Z,9.4
2023-03-31T03:08:25.843Z,7
2023-03-31T03:14:26.143Z,8.7
2023-03-31T03:20:17.692Z,7.5
2023-03-31T03:26:20.576Z,6
2023-03-31T03:32:14.140Z,5.3
2023-03-31T03:38:22.570Z,5.6
2023-03-31T03:44:15.824Z,7
2023-03-31T03:50:07.621Z,7.9
2023-03-31T03:56:01.050Z,7.6
2023-03-31T04:02:07.165Z,3.4
2023-03-31T04:08:02.873Z,5.3
2023-03-31T04:13:54.404Z,5.2
2023-03-31T04:19:46.934Z,3.8
2023-03-31T04:25:53.584Z,5.5
2023-03-31T04:31:45.559Z,4.8
2023-03-31T04:37:38.515Z,5.8
2023-03-31T04:43:45.137Z,7.2
2023-03-31T04:49:36.746Z,8.3
2023-03-31T04:55:35.062Z,6.3
2023-03-31T05:01:31.909Z,6.1
2023-03-31T05:07:23.989Z,5.8
2023-03-31T05:13:46.345Z,5.7
2023-03-31T05:19:36.846Z,4.5
2023-03-31T05:25:28.370Z,4.7
2023-03-31T05:31:20.602Z,4.2
2023-03-31T05:37:13.557Z,3.1
2023-03-31T05:43:08.013Z,2.6
2023-03-31T05:49:00.148Z,4
2023-03-31T05:54:52.707Z,1.9
2023-03-31T06:00:45.827Z,1.5
2023-03-31T06:06:46.621Z,1.2
2023-03-31T06:12:42.744Z,1.5
2023-03-31T06:18:34.526Z,1.7
2023-03-31T06:24:27.465Z,3.3
2023-03-31T06:30:20.529Z,3.3
2023-03-31T06:36:21.508Z,2.5
2023-03-31T06:42:21.008Z,3.2
2023-03-31T06:48:15.684Z,4.9
2023-03-31T06:54:06.630Z,6.8
2023-03-31T06:59:59.177Z,5.9
2023-03-31T07:05:50.985Z,4.8
2023-03-31T07:11:43.776Z,4.2
2023-03-31T07:17:35.855Z,3.8
2023-03-31T07:23:29.133Z,5.2
2023-03-31T07:29:22.381Z,5
2023-03-31T07:35:15.887Z,2.8
2023-03-31T07:41:15.331Z,3.5
2023-03-31T07:47:06.614Z,3.8
2023-03-31T07:52:59.048Z,2.7
2023-03-31T07:59:04.412Z,3.1
2023-03-31T08:04:58.576Z,2.5
2023-03-31T08:10:50.498Z,5.5
2023-03-31T08:16:44.137Z,5.7
2023-03-31T08:22:37.126Z,5.9
2023-03-31T08:28:30.391Z,7.5
2023-03-31T08:34:23.499Z,9.4
2023-03-31T08:40:14.523Z,10.3
2023-03-31T08:46:06.628Z,9.9
2023-03-31T08:51:59.170Z,7.8
2023-03-31T08:57:51.084Z,13.9
2023-03-31T09:03:42.924Z,8.8
2023-03-31T09:09:36.703Z,10
2023-03-31T09:15:28.479Z,8.6
2023-03-31T09:21:20.276Z,9.6
2023-03-31T09:27:12.613Z,10
2023-03-31T09:33:04.604Z,9.2
2023-03-31T09:38:59.489Z,8.2
2023-03-31T09:44:51.468Z,6.1
2023-03-31T09:50:49.490Z,6
2023-03-31T09:56:48.779Z,8.7
2023-03-31T10:02:46.867Z,10.3
2023-03-31T10:08:54.370Z,7.9
2023-03-31T10:14:47.539Z,6.7
2023-03-31T10:20:58.035Z,7
2023-03-31T10:26:50.309Z,8.7
2023-03-31T10:32:41.275Z,8.2
2023-03-31T10:38:39.497Z,7
2023-03-31T10:44:44.960Z,9.8
2023-03-31T10:50:42.929Z,9.5
2023-03-31T10:56:34.531Z,9.7
2023-03-31T11:02:28.128Z,8.2
2023-03-31T11:08:28.041Z,8
2023-03-31T11:14:22.852Z,8.9
2023-03-31T11:20:19.199Z,10
2023-03-31T11:26:15.548Z,11.5
2023-03-31T11:32:11.976Z,12
2023-03-31T11:38:18.530Z,14.4
2023-03-31T11:44:56.428Z,11.3
2023-03-31T11:51:07.725Z,11.2
2023-03-31T11:57:06.078Z,13.7
2023-03-31T12:03:07.871Z,13.4
2023-03-31T12:09:04.498Z,5.3
2023-03-31T12:15:00.051Z,3.1
2023-03-31T12:20:55.079Z,6.7
2023-03-31T12:26:49.070Z,5
2023-03-31T12:32:44.571Z,3.3
2023-03-31T12:38:37.340Z,5.2
2023-03-31T12:44:50.372Z,3.9
2023-03-31T12:50:42.441Z,6.2
2023-03-31T12:56:34.951Z,4.1
2023-03-31T13:02:27.614Z,6.4
2023-03-31T13:08:20.419Z,7
2023-03-31T13:14:16.218Z,8.5
2023-03-31T13:20:09.895Z,10.5
2023-03-31T13:26:01.302Z,8.4
2023-03-31T13:31:56.001Z,8.9
2023-03-31T13:37:49.228Z,7.5
2023-03-31T13:43:42.264Z,8.2
2023-03-31T13:49:37.515Z,6.8
2023-03-31T13:55:29.525Z,13.9
2023-03-31T14:01:23.299Z,10.3
2023-03-31T14:07:20.062Z,10.3
2023-03-31T14:13:24.398Z,9.3
2023-03-31T14:19:16.814Z,7.9
2023-03-31T14:25:11.563Z,5.1
2023-03-31T14:31:08.040Z,4.4
2023-03-31T14:37:01.516Z,5.2
2023-03-31T14:42:54.809Z,5.7
2023-03-31T14:48:47.375Z,6.9
2023-03-31T14:54:42.239Z,7
2023-03-31T15:00:38.716Z,4.7
2023-03-31T15:06:31.161Z,8.3
2023-03-31T15:12:24.161Z,8.1
2023-03-31T15:18:20.387Z,6.7
2023-03-31T15:24:14.639Z,6.1
2023-03-31T15:30:07.372Z,6.2
2023-03-31T15:36:02.004Z,6.4
2023-03-31T15:41:56.674Z,5.6
2023-03-31T15:47:50.849Z,5.6
2023-03-31T15:53:46.729Z,5
2023-03-31T16:13:38.464Z,7
2023-03-31T16:19:25.652Z,5.1
2023-03-31T16:25:16.901Z,5.3
2023-03-31T16:31:08.430Z,4.7
2023-03-31T16:37:00.500Z,3.8
2023-03-31T16:42:52.453Z,5.2
2023-03-31T16:48:46.099Z,6.3
2023-03-31T16:54:36.927Z,5
2023-03-31T17:00:30.532Z,4.6
2023-03-31T17:06:22.806Z,4.7
2023-03-31T17:12:14.823Z,5.6
2023-03-31T17:18:08.864Z,5.8
2023-03-31T17:24:05.967Z,5.8
2023-03-31T17:29:57.999Z,3.6
2023-03-31T17:36:02.581Z,7.2
2023-03-31T17:41:55.811Z,5.7
2023-03-31T17:49:14.393Z,7.1
2023-03-31T18:07:47.456Z,2.9
2023-03-31T18:13:51.129Z,5.9
2023-03-31T18:19:45.663Z,4.1
2023-03-31T18:25:38.898Z,6.6
2023-03-31T18:31:31.245Z,3.7
2023-03-31T18:37:23.068Z,3.3
2023-03-31T18:43:16.764Z,3.5
2023-03-31T18:49:26.438Z,3.9
2023-03-31T18:55:31.295Z,4.3
2023-03-31T19:01:26.439Z,3.5
2023-03-31T19:07:20.769Z,2.9
2023-03-31T19:13:30.967Z,4.4
2023-03-31T19:19:24.021Z,5.3
2023-03-31T19:25:27.531Z,2.7
2023-03-31T19:31:25.872Z,3.3
2023-03-31T19:37:25.316Z,5
2023-03-31T19:43:17.288Z,4.3
2023-03-31T19:49:17.374Z,5.3
2023-03-31T19:55:17.069Z,5.8
2023-03-31T20:01:13.307Z,5.6
2023-03-31T20:07:05.799Z,5.5
2023-03-31T20:12:58.830Z,4.8
2023-03-31T20:18:51.873Z,5.5
2023-03-31T20:24:43.047Z,6.5
2023-03-31T20:30:34.638Z,5.6
2023-03-31T20:36:30.700Z,6.7
2023-03-31T20:42:24.041Z,6.6
2023-03-31T20:48:39.983Z,8.6
2023-03-31T20:54:38.869Z,7.6
2023-03-31T21:00:47.675Z,6.4
2023-03-31T21:06:42.023Z,7.2
2023-03-31T21:18:59.549Z,10.3
2023-03-31T21:24:51.471Z,7.8
2023-03-31T21:30:49.311Z,8.2
2023-03-31T21:36:43.854Z,5.2
2023-03-31T21:42:35.110Z,6.2
2023-03-31T21:48:25.868Z,4.4
2023-03-31T21:54:17.157Z,4.6
2023-03-31T22:00:08.974Z,5.3
2023-03-31T22:06:06.170Z,4.7
2023-03-31T22:11:57.545Z,5.9
2023-03-31T22:17:50.701Z,4.8
2023-03-31T22:23:43.415Z,7.8
2023-03-31T22:29:34.728Z,5.1
2023-03-31T22:35:26.657Z,4.4
2023-03-31T22:41:18.670Z,4.4
2023-03-31T23:34:52.698Z,3.8
2023-03-31T23:40:45.702Z,3.9
2023-03-31T23:46:38.214Z,2.3
2023-03-31T23:52:35.342Z,3.3
2023-03-31T23:58:27.527Z,2
